sensor_id;sensor_type;location;lat;lon;timestamp;P1;P2;P0
31163;PMS5003;17796;49.296;-117.656;2023-01-10T00:07:42;36;28;
31163;PMS5003;17796;49.296;-117.656;2023-01-10T00:22:46;28;24;
31163;PMS5003;17796;49.296;-117.656;2023-01-10T00:37:50;34;24;
31163;PMS5003;17796;49.296;-117.656;2023-01-10T00:52:55;23;22;
31163;PMS5003;17796;49.296;-117.656;2023-01-10T01:07:59;27;23;
31163;PMS5003;17796;49.296;-117.656;2023-01-10T01:23:03;23;17;
31163;PMS5003;17796;49.296;-117.656;2023-01-10T01:38:07;30;23;
31163;PMS5003;17796;49.296;-117.656;2023-01-10T01:53:15;23;22;
31163;PMS5003;17796;49.296;-117.656;2023-01-10T02:08:20;22;19;
31163;PMS5003;17796;49.296;-117.656;2023-01-10T02:23:41;22;20;
31163;PMS5003;17796;49.296;-117.656;2023-01-10T02:38:55;21;18;
31163;PMS5003;17796;49.296;-117.656;2023-01-10T02:54:04;22;19;
31163;PMS5003;17796;49.296;-117.656;2023-01-10T03:09:14;26;21;
31163;PMS5003;17796;49.296;-117.656;2023-01-10T03:24:23;25;23;
31163;PMS5003;17796;49.296;-117.656;2023-01-10T03:39:33;41;30;
31163;PMS5003;17796;49.296;-117.656;2023-01-10T03:54:43;44;33;
31163;PMS5003;17796;49.296;-117.656;2023-01-10T04:09:47;26;22;
31163;PMS5003;17796;49.296;-117.656;2023-01-10T04:24:51;9;9;
31163;PMS5003;17796;49.296;-117.656;2023-01-10T04:39:54;10;7;
31163;PMS5003;17796;49.296;-117.656;2023-01-10T04:54:58;8;8;
31163;PMS5003;17796;49.296;-117.656;2023-01-10T05:10:02;7;7;
31163;PMS5003;17796;49.296;-117.656;2023-01-10T05:25:06;5;5;
31163;PMS5003;17796;49.296;-117.656;2023-01-10T05:40:11;10;6;
31163;PMS5003;17796;49.296;-117.656;2023-01-10T05:55:15;8;5;
31163;PMS5003;17796;49.296;-117.656;2023-01-10T06:10:19;6;6;
31163;PMS5003;17796;49.296;-117.656;2023-01-10T06:25:23;6;6;
31163;PMS5003;17796;49.296;-117.656;2023-01-10T06:40:27;4;4;
31163;PMS5003;17796;49.296;-117.656;2023-01-10T06:55:32;9;7;
31163;PMS5003;17796;49.296;-117.656;2023-01-10T07:10:40;5;5;
31163;PMS5003;17796;49.296;-117.656;2023-01-10T07:25:43;3;3;
31163;PMS5003;17796;49.296;-117.656;2023-01-10T07:40:47;4;3;
31163;PMS5003;17796;49.296;-117.656;2023-01-10T07:55:51;5;5;
31163;PMS5003;17796;49.296;-117.656;2023-01-10T08:10:56;5;5;
31163;PMS5003;17796;49.296;-117.656;2023-01-10T08:26:00;10;9;
31163;PMS5003;17796;49.296;-117.656;2023-01-10T08:41:06;9;9;
31163;PMS5003;17796;49.296;-117.656;2023-01-10T08:56:10;9;7;
31163;PMS5003;17796;49.296;-117.656;2023-01-10T09:11:17;10;5;
31163;PMS5003;17796;49.296;-117.656;2023-01-10T09:26:21;21;14;
31163;PMS5003;17796;49.296;-117.656;2023-01-10T09:41:48;20;20;
31163;PMS5003;17796;49.296;-117.656;2023-01-10T09:56:55;21;18;
31163;PMS5003;17796;49.296;-117.656;2023-01-10T10:12:16;26;19;
31163;PMS5003;17796;49.296;-117.656;2023-01-10T10:27:33;30;25;
31163;PMS5003;17796;49.296;-117.656;2023-01-10T10:42:41;28;22;
31163;PMS5003;17796;49.296;-117.656;2023-01-10T10:57:47;24;18;
31163;PMS5003;17796;49.296;-117.656;2023-01-10T11:12:52;36;31;
31163;PMS5003;17796;49.296;-117.656;2023-01-10T11:27:58;32;23;
31163;PMS5003;17796;49.296;-117.656;2023-01-10T11:43:28;27;23;
31163;PMS5003;17796;49.296;-117.656;2023-01-10T11:58:34;25;22;
31163;PMS5003;17796;49.296;-117.656;2023-01-10T12:13:46;28;24;
31163;PMS5003;17796;49.296;-117.656;2023-01-10T12:28:53;34;29;
31163;PMS5003;17796;49.296;-117.656;2023-01-10T12:43:58;34;28;
31163;PMS5003;17796;49.296;-117.656;2023-01-10T12:59:06;27;23;
31163;PMS5003;17796;49.296;-117.656;2023-01-10T13:14:13;27;25;
31163;PMS5003;17796;49.296;-117.656;2023-01-10T13:29:22;26;24;
31163;PMS5003;17796;49.296;-117.656;2023-01-10T13:44:26;27;26;
31163;PMS5003;17796;49.296;-117.656;2023-01-10T14:00:19;22;19;
31163;PMS5003;17796;49.296;-117.656;2023-01-10T14:15:25;23;20;
31163;PMS5003;17796;49.296;-117.656;2023-01-10T14:30:32;28;24;
31163;PMS5003;17796;49.296;-117.656;2023-01-10T14:45:42;23;18;
31163;PMS5003;17796;49.296;-117.656;2023-01-10T15:00:48;20;15;
31163;PMS5003;17796;49.296;-117.656;2023-01-10T15:16:00;22;18;
31163;PMS5003;17796;49.296;-117.656;2023-01-10T15:31:06;19;18;
31163;PMS5003;17796;49.296;-117.656;2023-01-10T15:46:18;28;24;
31163;PMS5003;17796;49.296;-117.656;2023-01-10T16:01:23;24;23;
31163;PMS5003;17796;49.296;-117.656;2023-01-10T16:16:27;28;26;
31163;PMS5003;17796;49.296;-117.656;2023-01-10T16:31:35;29;28;
31163;PMS5003;17796;49.296;-117.656;2023-01-10T16:46:41;29;24;
31163;PMS5003;17796;49.296;-117.656;2023-01-10T17:01:49;32;23;
31163;PMS5003;17796;49.296;-117.656;2023-01-10T17:16:54;38;29;
31163;PMS5003;17796;49.296;-117.656;2023-01-10T17:31:58;28;19;
31163;PMS5003;17796;49.296;-117.656;2023-01-10T17:47:02;35;25;
31163;PMS5003;17796;49.296;-117.656;2023-01-10T18:02:07;33;31;
31163;PMS5003;17796;49.296;-117.656;2023-01-10T18:17:12;47;40;
31163;PMS5003;17796;49.296;-117.656;2023-01-10T18:32:16;36;26;
31163;PMS5003;17796;49.296;-117.656;2023-01-10T18:47:20;31;26;
31163;PMS5003;17796;49.296;-117.656;2023-01-10T19:02:24;39;29;
31163;PMS5003;17796;49.296;-117.656;2023-01-10T19:17:29;21;18;
31163;PMS5003;17796;49.296;-117.656;2023-01-10T19:32:33;25;21;
31163;PMS5003;17796;49.296;-117.656;2023-01-10T19:47:37;32;26;
31163;PMS5003;17796;49.296;-117.656;2023-01-10T20:02:40;34;26;
31163;PMS5003;17796;49.296;-117.656;2023-01-10T20:17:44;27;25;
31163;PMS5003;17796;49.296;-117.656;2023-01-10T20:32:48;30;23;
31163;PMS5003;17796;49.296;-117.656;2023-01-10T20:47:52;30;20;
31163;PMS5003;17796;49.296;-117.656;2023-01-10T21:02:56;30;26;
31163;PMS5003;17796;49.296;-117.656;2023-01-10T21:17:59;23;17;
31163;PMS5003;17796;49.296;-117.656;2023-01-10T21:33:03;30;25;
31163;PMS5003;17796;49.296;-117.656;2023-01-10T21:48:07;25;21;
31163;PMS5003;17796;49.296;-117.656;2023-01-10T22:03:11;27;27;
31163;PMS5003;17796;49.296;-117.656;2023-01-10T22:18:15;36;27;
31163;PMS5003;17796;49.296;-117.656;2023-01-10T22:33:19;25;20;
31163;PMS5003;17796;49.296;-117.656;2023-01-10T22:48:22;33;28;
31163;PMS5003;17796;49.296;-117.656;2023-01-10T23:03:26;24;19;
31163;PMS5003;17796;49.296;-117.656;2023-01-10T23:18:30;34;26;
31163;PMS5003;17796;49.296;-117.656;2023-01-10T23:33:34;32;27;
31163;PMS5003;17796;49.296;-117.656;2023-01-10T23:48:38;28;27;
